createdAt,value
2023-04-08T00:01:19.607Z,3.35
2023-04-08T00:03:46.717Z,2.92
2023-04-08T00:06:13.735Z,3.50
2023-04-08T00:08:40.765Z,3.10
2023-04-08T00:11:07.646Z,3.35
2023-04-08T00:13:34.658Z,3.50
2023-04-08T00:16:01.722Z,3.50
2023-04-08T00:18:29.438Z,4.20
2023-04-08T00:20:57.396Z,4.63
2023-04-08T00:23:24.424Z,4.28
2023-04-08T00:25:51.518Z,4.50
2023-04-08T00:28:18.462Z,4.65
2023-04-08T00:30:45.841Z,4.43
2023-04-08T00:33:12.877Z,4.43
2023-04-08T00:35:39.875Z,4.82
2023-04-08T00:38:08.154Z,4.68
2023-04-08T00:40:35.278Z,4.18
2023-04-08T00:43:02.263Z,4.65
2023-04-08T00:45:29.355Z,4.80
2023-04-08T00:47:56.827Z,5.50
2023-04-08T00:50:24.368Z,4.88
2023-04-08T00:52:51.356Z,4.50
2023-04-08T00:55:18.302Z,4.82
2023-04-08T00:57:46.097Z,4.63
2023-04-08T01:00:13.979Z,5.32
2023-04-08T01:02:59.378Z,5.18
2023-04-08T01:05:38.943Z,5.57
2023-04-08T01:08:06.651Z,5.95
2023-04-08T01:10:34.652Z,5.75
2023-04-08T01:13:06.508Z,4.88
2023-04-08T01:15:33.619Z,6.38
2023-04-08T01:18:00.741Z,4.97
2023-04-08T01:20:28.922Z,5.47
2023-04-08T01:23:00.915Z,5.82
2023-04-08T01:25:32.295Z,5.70
2023-04-08T01:28:00.794Z,6.10
2023-04-08T01:30:28.610Z,6.13
2023-04-08T01:32:57.619Z,6.20
2023-04-08T01:35:24.641Z,7.35
2023-04-08T01:37:51.712Z,7.03
2023-04-08T01:40:19.096Z,7.07
2023-04-08T01:42:49.801Z,7.93
2023-04-08T01:45:17.103Z,8.00
2023-04-08T01:47:47.498Z,8.52
2023-04-08T01:50:15.643Z,7.60
2023-04-08T01:52:46.312Z,8.32
2023-04-08T01:55:14.338Z,8.63
2023-04-08T01:57:42.104Z,9.45
2023-04-08T02:00:10.322Z,8.85
2023-04-08T02:02:47.670Z,9.90
2023-04-08T02:05:15.103Z,10.10
2023-04-08T02:07:42.039Z,10.32
2023-04-08T02:10:09.852Z,11.23
2023-04-08T02:12:36.774Z,11.63
2023-04-08T02:15:09.085Z,10.48
2023-04-08T02:17:45.823Z,10.23
2023-04-08T02:20:24.394Z,8.77
2023-04-08T02:23:11.091Z,8.20
2023-04-08T02:25:39.034Z,7.63
2023-04-08T02:28:07.140Z,6.57
2023-04-08T02:30:34.265Z,6.63
2023-04-08T02:33:01.607Z,6.18
2023-04-08T02:35:28.556Z,6.20
2023-04-08T02:37:55.546Z,6.00
2023-04-08T02:40:29.712Z,5.85
2023-04-08T02:42:56.825Z,5.60
2023-04-08T02:45:28.228Z,6.00
2023-04-08T02:47:55.536Z,5.70
2023-04-08T02:50:22.704Z,5.75
2023-04-08T02:52:49.650Z,4.93
2023-04-08T02:55:19.819Z,5.00
2023-04-08T02:57:47.501Z,5.30
2023-04-08T03:00:15.053Z,5.38
2023-04-08T03:02:42.424Z,4.85
2023-04-08T03:05:12.631Z,5.85
2023-04-08T03:07:39.657Z,6.32
2023-04-08T03:10:07.279Z,5.53
2023-04-08T03:12:34.326Z,5.60
2023-04-08T03:15:01.917Z,6.20
2023-04-08T03:17:35.693Z,5.20
2023-04-08T03:20:05.037Z,5.85
2023-04-08T03:22:32.119Z,5.10
2023-04-08T03:24:59.104Z,4.95
2023-04-08T03:27:26.297Z,5.10
2023-04-08T03:29:53.418Z,5.00
2023-04-08T03:32:20.681Z,4.40
2023-04-08T03:34:49.730Z,5.07
2023-04-08T03:37:17.601Z,5.28
2023-04-08T03:39:44.488Z,5.38
2023-04-08T03:42:11.465Z,5.30
2023-04-08T03:44:38.458Z,5.88
2023-04-08T03:47:05.449Z,5.30
2023-04-08T03:49:32.364Z,6.20
2023-04-08T03:51:59.441Z,5.20
2023-04-08T03:54:26.401Z,5.82
2023-04-08T03:56:53.374Z,5.65
2023-04-08T03:59:20.495Z,6.18
2023-04-08T04:01:47.799Z,6.10
2023-04-08T04:04:15.069Z,6.45
2023-04-08T04:06:42.252Z,7.43
2023-04-08T04:09:09.302Z,7.47
2023-04-08T04:11:36.214Z,8.55
2023-04-08T04:14:03.616Z,9.77
2023-04-08T04:16:32.803Z,7.90
2023-04-08T04:19:00.390Z,8.45
2023-04-08T04:21:27.619Z,7.40
2023-04-08T04:23:54.567Z,6.85
2023-04-08T04:26:21.577Z,6.28
2023-04-08T04:28:49.252Z,6.10
2023-04-08T04:31:21.782Z,5.28
2023-04-08T04:33:49.219Z,4.63
2023-04-08T04:36:16.215Z,4.50
2023-04-08T04:38:43.571Z,4.57
2023-04-08T04:41:10.623Z,4.95
2023-04-08T04:43:37.951Z,4.82
2023-04-08T04:46:07.455Z,4.38
2023-04-08T04:48:35.357Z,5.15
2023-04-08T04:51:07.507Z,5.03
2023-04-08T04:53:34.582Z,4.80
2023-04-08T04:56:02.072Z,4.15
2023-04-08T04:58:29.727Z,4.82
2023-04-08T05:00:56.936Z,4.18
2023-04-08T05:03:24.087Z,5.00
2023-04-08T05:05:52.757Z,4.70
2023-04-08T05:08:20.156Z,4.60
2023-04-08T05:10:47.200Z,4.35
2023-04-08T05:13:14.129Z,4.95
2023-04-08T05:15:41.194Z,4.95
2023-04-08T05:18:08.319Z,4.68
2023-04-08T05:20:35.505Z,4.53
2023-04-08T05:23:02.500Z,4.57
2023-04-08T05:25:30.724Z,4.50
2023-04-08T05:27:57.755Z,4.10
2023-04-08T05:30:24.777Z,4.68
2023-04-08T05:32:51.925Z,4.30
2023-04-08T05:35:18.988Z,4.20
2023-04-08T05:37:45.887Z,4.47
2023-04-08T05:40:12.880Z,4.47
2023-04-08T05:42:39.808Z,3.95
2023-04-08T05:45:07.347Z,3.95
2023-04-08T05:47:34.350Z,4.15
2023-04-08T05:50:01.355Z,4.40
2023-04-08T05:52:28.485Z,4.47
2023-04-08T05:54:55.536Z,4.30
2023-04-08T05:57:22.364Z,4.57
2023-04-08T05:59:49.320Z,4.45
2023-04-08T06:02:16.351Z,4.40
2023-04-08T06:04:43.640Z,3.92
2023-04-08T06:07:11.076Z,4.43
2023-04-08T06:09:38.191Z,4.50
2023-04-08T06:12:05.471Z,4.32
2023-04-08T06:14:32.673Z,4.78
2023-04-08T06:16:59.881Z,4.28
2023-04-08T06:19:26.984Z,4.13
2023-04-08T06:21:58.836Z,4.55
2023-04-08T06:24:27.492Z,4.72
2023-04-08T06:26:54.461Z,4.85
2023-04-08T06:29:24.437Z,4.78
2023-04-08T06:31:51.607Z,5.10
2023-04-08T06:34:18.710Z,5.28
2023-04-08T06:36:45.773Z,5.00
2023-04-08T06:39:13.124Z,5.40
2023-04-08T06:41:40.151Z,4.80
2023-04-08T06:44:19.825Z,4.70
2023-04-08T06:46:46.944Z,5.10
2023-04-08T06:49:13.993Z,5.70
2023-04-08T06:51:41.002Z,5.07
2023-04-08T06:54:10.163Z,5.57
2023-04-08T06:56:37.578Z,6.13
2023-04-08T06:59:07.158Z,5.95
2023-04-08T07:01:34.441Z,6.32
2023-04-08T07:04:02.572Z,5.65
2023-04-08T07:06:29.573Z,5.63
2023-04-08T07:08:56.486Z,5.18
2023-04-08T07:11:23.456Z,4.95
2023-04-08T07:13:50.837Z,4.65
2023-04-08T07:16:17.877Z,4.90
2023-04-08T07:18:44.967Z,4.60
2023-04-08T07:21:12.736Z,5.63
2023-04-08T07:23:39.745Z,4.63
2023-04-08T07:26:06.785Z,4.47
2023-04-08T07:28:33.705Z,4.43
2023-04-08T07:31:10.546Z,4.00
2023-04-08T07:33:37.399Z,4.38
2023-04-08T07:36:04.467Z,4.20
2023-04-08T07:38:31.690Z,4.30
2023-04-08T07:40:58.672Z,4.63
2023-04-08T07:43:25.742Z,4.15
2023-04-08T07:45:52.905Z,4.18
2023-04-08T07:48:19.890Z,4.05
2023-04-08T07:51:09.255Z,4.00
2023-04-08T07:53:34.576Z,4.00
2023-04-08T07:56:01.691Z,4.43
2023-04-08T07:58:28.898Z,4.10
2023-04-08T08:00:57.707Z,3.83
2023-04-08T08:03:25.719Z,4.18
2023-04-08T08:05:54.205Z,4.20
2023-04-08T08:08:21.386Z,3.80
2023-04-08T08:10:48.218Z,3.92
2023-04-08T08:13:17.340Z,4.25
2023-04-08T08:15:44.401Z,4.00
2023-04-08T08:18:11.581Z,3.95
2023-04-08T08:20:38.688Z,4.30
2023-04-08T08:23:05.670Z,4.22
2023-04-08T08:25:32.578Z,3.97
2023-04-08T08:27:59.454Z,4.15
2023-04-08T08:30:27.130Z,3.97
2023-04-08T08:32:54.252Z,3.80
2023-04-08T08:35:21.211Z,3.78
2023-04-08T08:37:48.287Z,3.97
2023-04-08T08:40:15.943Z,3.70
2023-04-08T08:42:43.087Z,4.25
2023-04-08T08:45:10.449Z,4.05
2023-04-08T08:47:37.375Z,4.35
2023-04-08T08:50:05.205Z,3.90
2023-04-08T08:52:32.255Z,4.10
2023-04-08T08:54:59.431Z,4.60
2023-04-08T08:57:27.217Z,4.63
2023-04-08T08:59:54.356Z,4.45
2023-04-08T09:02:29.030Z,5.18
2023-04-08T09:04:58.280Z,4.68
2023-04-08T09:07:26.859Z,5.03
2023-04-08T09:09:54.556Z,4.80
2023-04-08T09:12:21.628Z,4.60
2023-04-08T09:14:48.644Z,4.53
2023-04-08T09:17:16.397Z,4.03
2023-04-08T09:20:12.251Z,3.67
2023-04-08T09:23:02.707Z,3.97
2023-04-08T09:25:32.269Z,4.78
2023-04-08T09:27:59.706Z,4.63
2023-04-08T09:30:27.549Z,4.20
2023-04-08T09:32:56.524Z,4.18
2023-04-08T09:35:24.160Z,4.50
2023-04-08T09:37:51.315Z,3.42
2023-04-08T09:40:18.447Z,4.60
2023-04-08T09:42:48.762Z,4.55
2023-04-08T09:45:16.261Z,4.22
2023-04-08T09:47:50.561Z,3.70
2023-04-08T09:50:17.626Z,3.33
2023-04-08T09:52:45.642Z,3.40
2023-04-08T09:55:13.350Z,3.30
2023-04-08T09:58:02.271Z,3.72
2023-04-08T10:00:32.537Z,3.80
2023-04-08T10:03:08.387Z,3.50
2023-04-08T10:05:39.744Z,3.60
2023-04-08T10:08:07.100Z,3.25
2023-04-08T10:10:39.629Z,4.00
2023-04-08T10:13:07.193Z,3.50
2023-04-08T10:15:34.900Z,3.33
2023-04-08T10:18:07.943Z,4.18
2023-04-08T10:20:35.165Z,3.55
2023-04-08T10:23:02.710Z,3.67
2023-04-08T10:25:32.729Z,3.60
2023-04-08T10:28:00.738Z,3.78
2023-04-08T10:30:27.734Z,4.63
2023-04-08T10:32:56.951Z,3.55
2023-04-08T10:35:30.539Z,4.78
2023-04-08T10:37:58.608Z,3.97
2023-04-08T10:40:25.836Z,3.70
2023-04-08T10:42:58.605Z,3.47
2023-04-08T10:45:25.669Z,3.58
2023-04-08T10:47:52.657Z,4.15
2023-04-08T10:50:20.125Z,3.38
2023-04-08T10:52:50.976Z,3.67
2023-04-08T10:55:27.448Z,4.15
2023-04-08T10:57:55.860Z,3.83
2023-04-08T11:00:38.291Z,4.70
2023-04-08T11:03:06.711Z,4.07
2023-04-08T11:05:34.517Z,3.78
2023-04-08T11:08:01.666Z,3.58
2023-04-08T11:10:32.082Z,3.65
2023-04-08T11:12:59.032Z,3.95
2023-04-08T11:15:26.340Z,5.85
2023-04-08T11:17:56.633Z,4.47
2023-04-08T11:20:23.699Z,4.07
2023-04-08T11:22:50.829Z,7.70
2023-04-08T11:25:17.752Z,4.20
2023-04-08T11:27:45.113Z,3.67
2023-04-08T11:30:12.320Z,3.88
2023-04-08T11:32:39.295Z,3.40
2023-04-08T11:35:06.468Z,4.43
2023-04-08T11:37:40.500Z,4.22
2023-04-08T11:40:11.689Z,5.10
2023-04-08T11:42:39.989Z,5.20
2023-04-08T11:45:11.098Z,5.28
2023-04-08T11:47:38.088Z,5.15
2023-04-08T11:50:05.461Z,4.88
2023-04-08T11:52:48.652Z,4.45
2023-04-08T11:55:25.533Z,4.57
2023-04-08T11:57:52.876Z,3.70
2023-04-08T12:00:20.352Z,6.25
2023-04-08T12:02:48.172Z,4.88
2023-04-08T12:05:16.148Z,5.25
2023-04-08T12:07:43.406Z,5.00
2023-04-08T12:10:11.491Z,4.78
2023-04-08T12:12:39.131Z,4.25
2023-04-08T12:15:06.911Z,4.55
2023-04-08T12:17:34.043Z,4.40
2023-04-08T12:20:01.646Z,4.50
2023-04-08T12:22:30.384Z,4.63
2023-04-08T12:24:59.238Z,4.78
2023-04-08T12:27:26.505Z,4.75
2023-04-08T12:29:53.630Z,4.57
2023-04-08T12:32:20.732Z,4.88
2023-04-08T12:34:47.744Z,4.35
2023-04-08T12:37:14.649Z,4.70
2023-04-08T12:39:42.080Z,4.70
2023-04-08T12:42:09.247Z,5.35
2023-04-08T12:44:36.219Z,4.70
2023-04-08T12:47:03.207Z,5.13
2023-04-08T12:49:30.910Z,4.25
2023-04-08T12:52:01.425Z,4.20
2023-04-08T12:54:28.561Z,4.47
2023-04-08T12:56:57.071Z,4.45
2023-04-08T12:59:24.150Z,4.28
2023-04-08T13:01:54.291Z,4.57
2023-04-08T13:04:21.528Z,4.70
2023-04-08T13:06:48.587Z,4.40
2023-04-08T13:09:15.673Z,4.85
2023-04-08T13:11:42.524Z,4.22
2023-04-08T13:14:09.466Z,4.22
2023-04-08T13:16:37.300Z,4.30
2023-04-08T13:19:04.261Z,4.53
2023-04-08T13:21:31.743Z,4.55
2023-04-08T13:23:58.699Z,4.70
2023-04-08T13:26:26.672Z,5.28
2023-04-08T13:28:57.345Z,4.30
2023-04-08T13:31:25.539Z,5.20
2023-04-08T13:33:54.569Z,4.43
2023-04-08T13:36:23.411Z,4.07
2023-04-08T13:38:50.658Z,4.03
2023-04-08T13:41:17.917Z,4.20
2023-04-08T13:43:44.879Z,4.00
2023-04-08T13:46:11.961Z,4.30
2023-04-08T13:48:38.880Z,4.20
2023-04-08T13:51:05.848Z,5.00
2023-04-08T13:53:32.830Z,5.00
2023-04-08T13:55:59.877Z,6.50
2023-04-08T13:58:27.235Z,5.43
2023-04-08T14:00:54.381Z,5.55
2023-04-08T14:03:21.556Z,5.18
2023-04-08T14:05:49.121Z,5.45
2023-04-08T14:08:16.163Z,4.90
2023-04-08T14:10:43.035Z,5.65
2023-04-08T14:13:10.088Z,4.90
2023-04-08T14:15:37.055Z,5.43
2023-04-08T14:18:04.070Z,5.53
2023-04-08T14:20:31.319Z,5.38
2023-04-08T14:22:58.306Z,5.28
2023-04-08T14:25:25.843Z,4.88
2023-04-08T14:27:58.465Z,5.00
2023-04-08T14:30:27.244Z,5.00
2023-04-08T14:32:54.955Z,4.40
2023-04-08T14:35:22.118Z,5.25
2023-04-08T14:37:49.082Z,5.18
2023-04-08T14:40:16.052Z,5.70
2023-04-08T14:42:44.548Z,5.28
2023-04-08T14:45:11.602Z,5.25
2023-04-08T14:47:38.630Z,5.38
2023-04-08T14:50:06.306Z,5.50
2023-04-08T14:52:33.222Z,5.55
2023-04-08T14:55:00.513Z,6.00
2023-04-08T14:57:27.451Z,5.53
2023-04-08T14:59:54.522Z,6.18
2023-04-08T15:02:21.548Z,5.70
2023-04-08T15:04:48.497Z,5.93
2023-04-08T15:07:15.833Z,6.20
2023-04-08T15:09:42.721Z,5.90
2023-04-08T15:12:09.639Z,6.50
2023-04-08T15:14:36.656Z,6.15
2023-04-08T15:17:03.699Z,6.15
2023-04-08T15:19:30.750Z,6.78
2023-04-08T15:21:57.784Z,6.55
2023-04-08T15:24:24.756Z,6.57
2023-04-08T15:26:51.776Z,6.18
2023-04-08T15:29:18.617Z,7.03
2023-04-08T15:31:45.913Z,6.85
2023-04-08T15:34:12.920Z,6.32
2023-04-08T15:36:39.983Z,6.90
2023-04-08T15:39:07.049Z,7.47
2023-04-08T15:41:33.926Z,6.95
2023-04-08T15:44:01.134Z,21.17
2023-04-08T15:46:28.023Z,7.43
2023-04-08T15:48:55.204Z,9.02
2023-04-08T15:51:22.370Z,12.85
2023-04-08T15:53:51.576Z,60.90
2023-04-08T15:56:18.792Z,13.93
2023-04-08T15:58:46.217Z,33.05
2023-04-08T16:01:13.488Z,49.22
2023-04-08T16:03:41.124Z,32.22
2023-04-08T16:06:08.713Z,87.07
2023-04-08T16:08:35.805Z,16.10
2023-04-08T16:11:04.025Z,190.25
2023-04-08T16:13:31.024Z,123.93
2023-04-08T16:15:58.726Z,250.82
2023-04-08T16:18:26.117Z,67.97
2023-04-08T16:20:53.325Z,32.65
2023-04-08T16:23:20.661Z,36.45
2023-04-08T16:25:47.673Z,81.68
2023-04-08T16:28:14.657Z,183.20
2023-04-08T16:30:44.419Z,150.95
2023-04-08T16:33:11.515Z,312.27
2023-04-08T16:35:38.687Z,107.80
2023-04-08T16:38:06.311Z,75.75
2023-04-08T16:40:33.708Z,22.67
2023-04-08T16:43:01.280Z,25.88
2023-04-08T16:45:29.601Z,22.77
2023-04-08T16:47:57.020Z,20.80
2023-04-08T16:50:24.146Z,11.07
2023-04-08T16:52:51.156Z,9.15
2023-04-08T16:55:18.370Z,11.07
2023-04-08T16:57:45.758Z,9.93
2023-04-08T17:00:13.210Z,11.60
2023-04-08T17:02:40.513Z,9.95
2023-04-08T17:05:08.142Z,9.80
2023-04-08T17:07:35.123Z,9.40
2023-04-08T17:10:02.292Z,8.43
2023-04-08T17:12:30.491Z,9.00
2023-04-08T17:14:57.417Z,8.80
2023-04-08T17:17:24.418Z,9.52
2023-04-08T17:19:51.992Z,10.02
2023-04-08T17:22:18.968Z,9.60
2023-04-08T17:24:47.870Z,11.38
2023-04-08T17:27:15.157Z,8.88
2023-04-08T17:29:42.096Z,9.07
2023-04-08T17:32:09.192Z,9.60
2023-04-08T17:34:37.102Z,9.57
2023-04-08T17:37:05.356Z,8.52
2023-04-08T17:39:32.422Z,8.55
2023-04-08T17:41:59.528Z,8.10
2023-04-08T17:44:30.050Z,8.88
2023-04-08T17:46:57.444Z,9.52
2023-04-08T17:49:24.513Z,8.30
2023-04-08T17:51:51.489Z,8.05
2023-04-08T17:54:18.527Z,8.68
2023-04-08T17:56:46.691Z,7.72
2023-04-08T17:59:15.418Z,8.68
2023-04-08T18:01:42.490Z,7.88
2023-04-08T18:04:10.568Z,7.93
2023-04-08T18:06:37.645Z,7.70
2023-04-08T18:09:04.718Z,7.18
2023-04-08T18:11:31.749Z,8.20
2023-04-08T18:13:58.819Z,8.30
2023-04-08T18:16:25.762Z,10.40
2023-04-08T18:18:54.111Z,12.15
2023-04-08T18:21:22.139Z,9.15
2023-04-08T18:23:49.853Z,7.97
2023-04-08T18:26:17.286Z,6.63
2023-04-08T18:28:44.414Z,7.25
2023-04-08T18:31:11.390Z,7.10
2023-04-08T18:33:39.256Z,7.88
2023-04-08T18:36:10.563Z,7.00
2023-04-08T18:38:38.168Z,8.75
2023-04-08T18:41:05.910Z,8.00
2023-04-08T18:43:33.329Z,8.55
2023-04-08T18:46:00.474Z,7.85
2023-04-08T18:48:27.490Z,8.65
2023-04-08T18:50:54.621Z,8.75
2023-04-08T18:53:22.752Z,8.90
2023-04-08T18:55:51.296Z,9.63
2023-04-08T18:58:18.344Z,8.88
2023-04-08T19:00:45.564Z,9.63
2023-04-08T19:03:12.761Z,10.40
2023-04-08T19:05:39.860Z,10.13
2023-04-08T19:08:06.802Z,10.80
2023-04-08T19:10:33.897Z,12.20
2023-04-08T19:13:01.397Z,11.20
2023-04-08T19:15:31.143Z,10.27
2023-04-08T19:17:59.076Z,11.65
2023-04-08T19:20:27.322Z,10.15
2023-04-08T19:22:55.964Z,10.32
2023-04-08T19:25:22.987Z,10.30
2023-04-08T19:27:49.953Z,10.40
2023-04-08T19:30:16.863Z,11.63
2023-04-08T19:32:44.001Z,12.20
2023-04-08T19:35:14.012Z,12.18
2023-04-08T19:37:41.172Z,10.90
2023-04-08T19:40:08.653Z,10.60
2023-04-08T19:42:36.476Z,10.40
2023-04-08T19:45:03.873Z,10.85
2023-04-08T19:47:30.933Z,11.63
2023-04-08T19:49:58.422Z,11.75
2023-04-08T19:52:25.833Z,12.30
2023-04-08T19:54:53.289Z,12.98
2023-04-08T19:57:20.675Z,12.88
2023-04-08T19:59:50.604Z,13.60
2023-04-08T20:02:17.760Z,13.88
2023-04-08T20:04:45.669Z,12.70
2023-04-08T20:07:13.305Z,12.35
2023-04-08T20:09:40.572Z,12.15
2023-04-08T20:12:07.495Z,12.07
2023-04-08T20:14:35.969Z,11.75
2023-04-08T20:17:03.210Z,13.18
2023-04-08T20:19:30.558Z,13.10
2023-04-08T20:21:57.827Z,12.95
2023-04-08T20:24:24.865Z,13.05
2023-04-08T20:26:52.563Z,12.77
2023-04-08T20:29:19.578Z,12.40
2023-04-08T20:31:46.994Z,13.05
2023-04-08T20:34:14.104Z,12.30
2023-04-08T20:36:41.252Z,12.45
2023-04-08T20:39:12.018Z,12.45
2023-04-08T20:41:39.041Z,12.05
2023-04-08T20:44:10.653Z,12.05
2023-04-08T20:46:38.192Z,12.32
2023-04-08T20:49:05.531Z,11.98
2023-04-08T20:51:35.232Z,12.43
2023-04-08T20:54:02.473Z,12.32
2023-04-08T20:56:29.690Z,11.55
2023-04-08T20:58:59.692Z,12.73
2023-04-08T21:01:27.494Z,12.70
2023-04-08T21:03:54.836Z,13.35
2023-04-08T21:06:22.136Z,13.40
2023-04-08T21:08:49.783Z,12.45
2023-04-08T21:11:17.184Z,12.18
2023-04-08T21:13:45.536Z,12.95
2023-04-08T21:16:14.354Z,13.02
2023-04-08T21:18:41.336Z,12.65
2023-04-08T21:21:10.066Z,12.93
2023-04-08T21:23:37.064Z,12.57
2023-04-08T21:26:04.151Z,13.27
2023-04-08T21:28:31.353Z,12.77
2023-04-08T21:31:08.098Z,13.13
2023-04-08T21:33:35.176Z,11.75
2023-04-08T21:36:02.404Z,11.73
2023-04-08T21:38:29.426Z,11.57
2023-04-08T21:40:56.421Z,11.73
2023-04-08T21:43:23.440Z,11.20
2023-04-08T21:45:50.386Z,11.63
2023-04-08T21:48:17.355Z,12.00
2023-04-08T21:50:45.648Z,11.45
2023-04-08T21:53:12.641Z,12.38
2023-04-08T21:55:39.502Z,11.32
2023-04-08T21:58:06.487Z,11.43
2023-04-08T22:00:33.552Z,12.23
2023-04-08T22:03:00.650Z,12.05
2023-04-08T22:05:27.793Z,11.80
2023-04-08T22:07:55.035Z,12.57
2023-04-08T22:10:22.041Z,12.82
2023-04-08T22:12:48.967Z,12.73
2023-04-08T22:15:15.853Z,13.52
2023-04-08T22:17:42.981Z,12.10
2023-04-08T22:20:10.634Z,12.38
2023-04-08T22:22:37.726Z,12.93
2023-04-08T22:25:05.352Z,13.38
2023-04-08T22:27:32.359Z,13.50
2023-04-08T22:29:59.366Z,13.70
2023-04-08T22:32:26.558Z,12.85
2023-04-08T22:34:53.436Z,12.40
2023-04-08T22:37:20.438Z,13.02
2023-04-08T22:39:47.457Z,13.45
2023-04-08T22:42:14.395Z,14.18
2023-04-08T22:44:41.436Z,13.98
2023-04-08T22:47:08.302Z,15.07
2023-04-08T22:49:35.596Z,15.57
2023-04-08T22:52:02.523Z,14.27
2023-04-08T22:54:29.421Z,16.05
2023-04-08T22:56:56.677Z,13.38
2023-04-08T22:59:23.663Z,14.00
2023-04-08T23:01:50.818Z,14.20
2023-04-08T23:04:17.897Z,14.15
2023-04-08T23:06:44.861Z,13.90
2023-04-08T23:09:11.860Z,14.07
2023-04-08T23:11:38.883Z,13.68
2023-04-08T23:14:05.954Z,14.30
2023-04-08T23:16:33.039Z,12.88
2023-04-08T23:19:00.010Z,14.98
2023-04-08T23:21:27.124Z,13.38
2023-04-08T23:23:54.101Z,13.50
2023-04-08T23:26:21.319Z,14.00
2023-04-08T23:28:48.246Z,14.20
2023-04-08T23:31:15.450Z,14.25
2023-04-08T23:33:42.516Z,15.00
2023-04-08T23:36:12.858Z,14.73
2023-04-08T23:38:39.935Z,15.70
2023-04-08T23:41:07.037Z,14.88
2023-04-08T23:43:34.309Z,15.30
2023-04-08T23:46:01.291Z,16.08
2023-04-08T23:48:28.204Z,14.75
2023-04-08T23:50:55.287Z,15.32
2023-04-08T23:53:22.239Z,15.65
2023-04-08T23:55:49.162Z,14.98
2023-04-08T23:58:16.321Z,14.48
